createdAt,value
2023-07-14T00:01:58.568Z,101021.47
2023-07-14T00:04:30.174Z,101028.25
2023-07-14T00:06:58.241Z,101027.63
2023-07-14T00:09:28.920Z,101027.84
2023-07-14T00:11:57.558Z,101026.59
2023-07-14T00:14:27.247Z,101022.97
2023-07-14T00:16:55.942Z,101015.59
2023-07-14T00:19:25.056Z,101023.22
2023-07-14T00:21:53.151Z,101007.34
2023-07-14T00:24:23.888Z,101018.97
2023-07-14T00:26:57.185Z,101016.03
2023-07-14T00:29:36.627Z,101006.31
2023-07-14T00:32:13.807Z,101009.69
2023-07-14T00:34:42.466Z,101016.84
2023-07-14T00:37:10.920Z,101019.81
2023-07-14T00:39:39.137Z,101005.88
2023-07-14T00:42:10.924Z,101013.25
2023-07-14T00:44:40.332Z,101018.75
2023-07-14T00:47:22.972Z,101015.19
2023-07-14T00:49:52.563Z,101008.00
2023-07-14T00:52:29.160Z,101009.69
2023-07-14T00:54:57.133Z,101010.53
2023-07-14T00:57:29.954Z,101010.91
2023-07-14T01:00:01.866Z,101008.41
2023-07-14T01:02:30.354Z,101008.63
2023-07-14T01:05:00.615Z,101002.09
2023-07-14T01:07:33.993Z,101002.94
2023-07-14T01:10:04.554Z,101004.84
2023-07-14T01:12:37.846Z,101001.44
2023-07-14T01:15:09.001Z,100995.31
2023-07-14T01:17:38.035Z,100996.38
2023-07-14T01:20:09.307Z,100992.75
2023-07-14T01:22:46.658Z,100997.41
2023-07-14T01:25:28.799Z,100992.75
2023-07-14T01:27:58.124Z,100984.69
2023-07-14T01:30:26.590Z,100997.41
2023-07-14T01:32:55.316Z,100992.75
2023-07-14T01:35:30.789Z,100994.81
2023-07-14T01:37:59.150Z,100995.47
2023-07-14T01:40:29.048Z,100992.09
2023-07-14T01:43:01.319Z,100992.31
2023-07-14T01:45:34.032Z,100988.09
2023-07-14T01:48:05.568Z,100990.19
2023-07-14T01:50:38.412Z,100994.00
2023-07-14T01:53:11.857Z,100993.13
2023-07-14T01:55:43.038Z,100995.22
2023-07-14T01:58:19.094Z,100995.22
2023-07-14T02:00:49.801Z,100989.75
2023-07-14T02:03:33.765Z,100986.41
2023-07-14T02:06:02.643Z,100993.16
2023-07-14T02:08:30.765Z,100999.03
2023-07-14T02:10:58.704Z,100992.31
2023-07-14T02:13:28.894Z,100990.81
2023-07-14T02:15:58.047Z,100992.31
2023-07-14T02:18:29.572Z,100988.06
2023-07-14T02:20:59.710Z,100986.59
2023-07-14T02:23:29.708Z,100984.69
2023-07-14T02:26:08.605Z,100981.50
2023-07-14T02:28:40.844Z,100985.72
2023-07-14T02:31:17.186Z,100988.44
2023-07-14T02:33:47.182Z,100979.31
2023-07-14T02:36:24.305Z,100999.53
2023-07-14T02:38:56.674Z,100995.09
2023-07-14T02:41:29.062Z,100995.09
2023-07-14T02:44:04.048Z,100986.03
2023-07-14T02:46:39.365Z,100985.00
2023-07-14T02:49:08.550Z,100978.06
2023-07-14T02:51:37.938Z,100977.44
2023-07-14T02:54:06.793Z,100981.19
2023-07-14T02:56:35.451Z,100983.75
2023-07-14T02:59:05.677Z,100986.22
2023-07-14T03:01:34.551Z,100982.19
2023-07-14T03:04:03.012Z,100986.59
2023-07-14T03:06:31.120Z,100991.03
2023-07-14T03:08:59.261Z,100995.94
2023-07-14T03:11:27.503Z,100991.34
2023-07-14T03:13:55.516Z,100988.88
2023-07-14T03:16:24.831Z,100994.56
2023-07-14T03:18:52.886Z,100988.50
2023-07-14T03:21:20.880Z,100986.41
2023-07-14T03:23:50.346Z,100988.91
2023-07-14T03:26:18.443Z,100985.94
2023-07-14T03:28:46.419Z,100996.91
2023-07-14T03:31:15.214Z,100992.47
2023-07-14T03:33:45.242Z,100987.63
2023-07-14T03:36:14.806Z,100986.75
2023-07-14T03:38:44.945Z,100996.06
2023-07-14T03:41:17.374Z,100987.22
2023-07-14T03:43:45.725Z,100985.50
2023-07-14T03:46:15.353Z,100983.22
2023-07-14T03:48:45.023Z,100983.44
2023-07-14T03:51:13.535Z,100979.84
2023-07-14T03:53:41.657Z,100989.34
2023-07-14T03:56:11.270Z,100984.25
2023-07-14T03:58:42.999Z,100979.84
2023-07-14T04:01:11.165Z,100980.06
2023-07-14T04:03:39.345Z,100977.13
2023-07-14T04:06:10.272Z,100979.88
2023-07-14T04:08:38.486Z,100988.56
2023-07-14T04:11:06.655Z,100988.38
2023-07-14T04:13:35.361Z,100992.38
2023-07-14T04:16:05.917Z,100981.81
2023-07-14T04:18:34.126Z,100980.97
2023-07-14T04:21:03.011Z,100978.41
2023-07-14T04:23:34.572Z,100978.41
2023-07-14T04:26:03.159Z,100972.50
2023-07-14T04:28:31.396Z,100970.63
2023-07-14T04:31:02.768Z,100978.84
2023-07-14T04:33:31.565Z,100976.53
2023-07-14T04:36:00.807Z,100982.22
2023-07-14T04:38:30.763Z,100979.47
2023-07-14T04:41:00.166Z,100980.09
2023-07-14T04:43:28.206Z,100975.66
2023-07-14T04:45:56.353Z,100975.84
2023-07-14T04:48:24.519Z,100974.56
2023-07-14T04:50:53.668Z,100966.16
2023-07-14T04:53:21.778Z,100969.72
2023-07-14T04:55:50.489Z,100964.41
2023-07-14T04:58:20.059Z,100967.81
2023-07-14T05:00:49.362Z,100959.97
2023-07-14T05:03:17.745Z,100959.34
2023-07-14T05:05:47.782Z,100960.81
2023-07-14T05:08:15.830Z,100957.25
2023-07-14T05:10:43.819Z,100961.50
2023-07-14T05:13:11.941Z,100953.84
2023-07-14T05:15:46.211Z,100950.91
2023-07-14T05:18:17.313Z,100952.34
2023-07-14T05:20:45.466Z,100938.88
2023-07-14T05:23:13.613Z,100942.59
2023-07-14T05:25:41.868Z,100945.84
2023-07-14T05:28:10.509Z,100940.91
2023-07-14T05:30:38.664Z,100943.53
2023-07-14T05:33:08.336Z,100933.31
2023-07-14T05:35:36.529Z,100949.97
2023-07-14T05:38:04.764Z,100943.13
2023-07-14T05:40:46.670Z,100942.75
2023-07-14T05:43:21.461Z,100944.75
2023-07-14T05:45:49.515Z,100950.50
2023-07-14T05:48:19.480Z,100941.19
2023-07-14T05:50:48.174Z,100945.38
2023-07-14T05:53:19.042Z,100949.88
2023-07-14T05:55:47.272Z,100946.53
2023-07-14T05:58:15.521Z,100942.50
2023-07-14T06:00:44.255Z,100937.22
2023-07-14T06:03:14.764Z,100937.44
2023-07-14T06:05:44.373Z,100943.59
2023-07-14T06:08:12.385Z,100937.69
2023-07-14T06:10:40.667Z,100942.09
2023-07-14T06:13:08.753Z,100934.06
2023-07-14T06:15:38.095Z,100933.16
2023-07-14T06:18:06.314Z,100928.09
2023-07-14T06:20:34.690Z,100929.31
2023-07-14T06:23:04.544Z,100932.38
2023-07-14T06:25:32.815Z,100926.84
2023-07-14T06:28:00.853Z,100930.31
2023-07-14T06:30:29.178Z,100926.84
2023-07-14T06:32:58.369Z,100923.81
2023-07-14T06:35:26.565Z,100926.19
2023-07-14T06:37:57.014Z,100922.50
2023-07-14T06:40:26.959Z,100927.47
2023-07-14T06:42:55.388Z,100919.81
2023-07-14T06:45:23.926Z,100919.69
2023-07-14T06:47:52.062Z,100915.59
2023-07-14T06:50:20.370Z,100919.44
2023-07-14T06:52:48.473Z,100906.69
2023-07-14T06:55:16.753Z,100917.50
2023-07-14T06:57:46.341Z,100909.81
2023-07-14T07:00:15.302Z,100914.34
2023-07-14T07:02:43.714Z,100912.53
2023-07-14T07:05:12.584Z,100913.84
2023-07-14T07:07:40.774Z,100904.19
2023-07-14T07:10:09.892Z,100901.56
2023-07-14T07:12:37.924Z,100907.44
2023-07-14T07:15:08.817Z,100900.09
2023-07-14T07:17:38.986Z,100894.59
2023-07-14T07:20:09.220Z,100896.47
2023-07-14T07:22:38.230Z,100889.53
2023-07-14T07:25:07.321Z,100903.09
2023-07-14T07:27:36.382Z,100897.53
2023-07-14T07:30:04.890Z,100892.31
2023-07-14T07:32:34.388Z,100891.38
2023-07-14T07:35:02.809Z,100889.22
2023-07-14T07:37:33.131Z,100874.06
2023-07-14T07:40:03.840Z,100871.59
2023-07-14T07:42:32.723Z,100874.22
2023-07-14T07:45:00.699Z,100869.69
2023-07-14T07:47:29.143Z,100869.34
2023-07-14T07:49:58.792Z,100851.28
2023-07-14T07:52:26.921Z,100863.16
2023-07-14T07:54:55.307Z,100860.16
2023-07-14T07:57:23.438Z,100856.91
2023-07-14T07:59:51.695Z,100858.03
2023-07-14T08:02:19.802Z,100853.94
2023-07-14T08:04:50.607Z,100858.84
2023-07-14T08:07:20.415Z,100849.56
2023-07-14T08:09:50.329Z,100829.88
2023-07-14T08:12:18.413Z,100840.38
2023-07-14T08:14:54.670Z,100840.59
2023-07-14T08:17:25.568Z,100843.50
2023-07-14T08:19:55.214Z,100838.03
2023-07-14T08:22:27.145Z,100836.53
2023-07-14T08:24:57.529Z,100830.50
2023-07-14T08:27:25.878Z,100834.97
2023-07-14T08:29:55.150Z,100833.34
2023-07-14T08:32:23.353Z,100835.00
2023-07-14T08:34:51.332Z,100823.91
2023-07-14T08:37:19.855Z,100829.44
2023-07-14T08:39:49.537Z,100825.34
2023-07-14T08:42:33.525Z,100828.41
2023-07-14T08:45:15.285Z,100820.91
2023-07-14T08:47:54.541Z,100817.25
2023-07-14T08:50:27.469Z,100825.63
2023-07-14T08:53:04.122Z,100821.44
2023-07-14T08:55:38.345Z,100819.78
2023-07-14T08:58:14.955Z,100819.22
2023-07-14T09:00:47.882Z,100817.56
2023-07-14T09:03:20.628Z,100812.78
2023-07-14T09:05:53.528Z,100818.84
2023-07-14T09:08:27.412Z,100819.97
2023-07-14T09:11:03.222Z,100819.19
2023-07-14T09:13:46.088Z,100817.19
2023-07-14T09:16:19.035Z,100810.53
2023-07-14T09:18:56.047Z,100811.97
2023-07-14T09:21:32.815Z,100813.28
2023-07-14T09:24:15.136Z,100811.31
2023-07-14T09:26:48.686Z,100798.13
2023-07-14T09:29:20.423Z,100794.78
2023-07-14T09:31:53.522Z,100799.78
2023-07-14T09:34:28.465Z,100801.66
2023-07-14T09:36:58.902Z,100792.78
2023-07-14T09:39:36.527Z,100802.06
2023-07-14T09:42:13.795Z,100793.50
2023-07-14T09:44:42.103Z,100790.41
2023-07-14T09:47:10.218Z,100788.66
2023-07-14T09:49:42.381Z,100784.09
2023-07-14T09:52:16.775Z,100790.31
2023-07-14T09:54:53.022Z,100781.13
2023-07-14T09:57:38.503Z,100785.22
2023-07-14T10:00:26.916Z,100771.28
2023-07-14T10:03:08.249Z,100776.59
2023-07-14T10:05:50.701Z,100782.09
2023-07-14T10:08:27.250Z,100772.94
2023-07-14T10:10:58.045Z,100770.78
2023-07-14T10:13:30.586Z,100768.91
2023-07-14T10:16:04.938Z,100768.84
2023-07-14T10:18:33.122Z,100768.44
2023-07-14T10:21:07.883Z,100765.19
2023-07-14T10:23:36.216Z,100763.47
2023-07-14T10:26:06.771Z,100756.63
2023-07-14T10:28:38.635Z,100754.16
2023-07-14T10:31:21.525Z,100748.38
2023-07-14T10:34:08.648Z,100744.44
2023-07-14T10:36:40.211Z,100744.94
2023-07-14T10:39:15.318Z,100739.31
2023-07-14T10:41:47.134Z,100745.00
2023-07-14T10:44:24.448Z,100740.72
2023-07-14T10:46:57.110Z,100737.34
2023-07-14T10:49:30.568Z,100725.19
2023-07-14T10:52:04.736Z,100722.34
2023-07-14T10:54:45.347Z,100721.84
2023-07-14T10:57:31.189Z,100714.53
2023-07-14T11:00:21.575Z,100715.66
2023-07-14T11:02:58.576Z,100713.81
2023-07-14T11:05:28.933Z,100708.44
2023-07-14T11:07:57.692Z,100712.78
2023-07-14T11:10:41.962Z,100702.81
2023-07-14T11:13:17.556Z,100697.66
2023-07-14T11:15:51.182Z,100705.56
2023-07-14T11:18:31.440Z,100691.00
2023-07-14T11:21:18.023Z,100699.22
2023-07-14T11:23:53.504Z,100689.91
2023-07-14T11:26:28.947Z,100692.13
2023-07-14T11:29:05.711Z,100692.06
2023-07-14T11:31:45.894Z,100689.28
2023-07-14T11:34:24.657Z,100691.34
2023-07-14T11:37:20.793Z,100682.69
2023-07-14T11:39:56.665Z,100676.78
2023-07-14T11:42:28.244Z,100684.25
2023-07-14T11:44:58.866Z,100673.06
2023-07-14T11:47:33.954Z,100671.19
2023-07-14T11:50:03.551Z,100668.00
2023-07-14T11:52:32.624Z,100657.00
2023-07-14T11:55:06.243Z,100658.31
2023-07-14T11:57:49.483Z,100652.53
2023-07-14T12:00:26.068Z,100641.66
2023-07-14T12:03:03.903Z,100646.56
2023-07-14T12:05:35.663Z,100638.50
2023-07-14T12:08:24.648Z,100636.97
2023-07-14T12:10:52.927Z,100633.47
2023-07-14T12:13:28.552Z,100636.47
2023-07-14T12:16:14.599Z,100638.84
2023-07-14T12:19:18.498Z,100641.06
2023-07-14T12:22:04.477Z,100633.97
2023-07-14T12:24:37.909Z,100633.00
2023-07-14T12:27:18.709Z,100625.00
2023-07-14T12:29:58.090Z,100616.75
2023-07-14T12:32:26.680Z,100612.28
2023-07-14T12:34:58.242Z,100611.13
2023-07-14T12:37:26.345Z,100615.41
2023-07-14T12:39:55.715Z,100615.97
2023-07-14T12:42:23.766Z,100607.19
2023-07-14T12:44:54.958Z,100602.44
2023-07-14T12:47:23.132Z,100603.53
2023-07-14T12:49:53.594Z,100600.31
2023-07-14T12:52:29.872Z,100592.00
2023-07-14T12:55:01.630Z,100587.47
2023-07-14T12:57:32.976Z,100583.13
2023-07-14T13:00:20.759Z,100584.13
2023-07-14T13:02:50.514Z,100586.97
2023-07-14T13:05:22.460Z,100577.88
2023-07-14T13:07:55.137Z,100577.63
2023-07-14T13:10:26.078Z,100582.00
2023-07-14T13:12:56.355Z,100575.84
2023-07-14T13:15:29.692Z,100568.00
2023-07-14T13:18:04.444Z,100567.03
2023-07-14T13:20:42.822Z,100570.03
2023-07-14T13:23:21.530Z,100556.91
2023-07-14T13:25:53.582Z,100542.81
2023-07-14T13:28:27.926Z,100549.97
2023-07-14T13:30:56.233Z,100549.69
2023-07-14T13:33:29.054Z,100542.09
2023-07-14T13:36:00.713Z,100527.06
2023-07-14T13:38:30.395Z,100518.84
2023-07-14T13:41:08.701Z,100516.81
2023-07-14T13:43:37.403Z,100511.31
2023-07-14T13:46:14.192Z,100505.16
2023-07-14T13:49:09.569Z,100499.59
2023-07-14T13:51:37.829Z,100504.66
2023-07-14T13:54:17.335Z,100500.47
2023-07-14T13:56:47.645Z,100485.63
2023-07-14T13:59:17.213Z,100492.19
2023-07-14T14:01:45.598Z,100487.38
2023-07-14T14:04:15.889Z,100489.75
2023-07-14T14:06:46.471Z,100486.47
2023-07-14T14:09:21.660Z,100484.47
2023-07-14T14:11:50.659Z,100486.44
2023-07-14T14:14:18.646Z,100474.75
2023-07-14T14:16:50.663Z,100472.66
2023-07-14T14:19:24.252Z,100468.56
2023-07-14T14:21:53.810Z,100458.06
2023-07-14T14:24:23.286Z,100465.59
2023-07-14T14:26:52.444Z,100462.63
2023-07-14T14:29:22.320Z,100465.47
2023-07-14T14:31:50.461Z,100446.88
2023-07-14T14:34:18.979Z,100434.50
2023-07-14T14:36:47.607Z,100440.06
2023-07-14T14:39:16.963Z,100427.31
2023-07-14T14:41:48.628Z,100434.56
2023-07-14T14:44:25.838Z,100421.22
2023-07-14T14:46:54.474Z,100409.59
2023-07-14T14:49:25.570Z,100408.53
2023-07-14T14:51:55.136Z,100417.94
2023-07-14T14:54:23.765Z,100414.59
2023-07-14T14:56:54.822Z,100406.13
2023-07-14T14:59:25.595Z,100395.31
2023-07-14T15:01:54.589Z,100388.03
2023-07-14T15:04:25.143Z,100377.03
2023-07-14T15:06:53.457Z,100387.44
2023-07-14T15:09:22.769Z,100395.34
2023-07-14T15:11:54.166Z,100387.38
2023-07-14T15:14:31.897Z,100383.78
2023-07-14T15:17:08.096Z,100376.44
2023-07-14T15:19:36.481Z,100374.78
2023-07-14T15:22:09.712Z,100373.28
2023-07-14T15:24:38.076Z,100365.44
2023-07-14T15:27:10.522Z,100357.78
2023-07-14T15:29:39.742Z,100359.03
2023-07-14T15:32:11.749Z,100341.31
2023-07-14T15:34:40.084Z,100336.22
2023-07-14T15:37:08.294Z,100343.66
2023-07-14T15:39:36.529Z,100346.25
2023-07-14T15:42:09.777Z,100336.84
2023-07-14T15:44:39.325Z,100340.03
2023-07-14T15:47:14.075Z,100338.34
2023-07-14T15:49:42.444Z,100327.25
2023-07-14T15:52:19.051Z,100313.97
2023-07-14T15:54:47.997Z,100325.56
2023-07-14T15:57:17.198Z,100320.53
2023-07-14T15:59:46.995Z,100308.50
2023-07-14T16:02:17.080Z,100298.31
2023-07-14T16:04:48.106Z,100309.09
2023-07-14T16:07:18.628Z,100308.75
2023-07-14T16:09:47.114Z,100311.22
2023-07-14T16:12:20.059Z,100306.09
2023-07-14T16:14:52.568Z,100300.31
2023-07-14T16:17:20.729Z,100296.69
2023-07-14T16:19:48.924Z,100291.59
2023-07-14T16:22:21.800Z,100287.97
2023-07-14T16:24:50.677Z,100273.13
2023-07-14T16:28:04.128Z,100282.38
2023-07-14T16:30:33.913Z,100284.84
2023-07-14T16:33:02.702Z,100279.25
2023-07-14T16:35:30.893Z,100274.81
2023-07-14T16:38:04.383Z,100276.25
2023-07-14T16:40:37.256Z,100273.91
2023-07-14T16:43:07.695Z,100272.31
2023-07-14T16:45:37.184Z,100264.53
2023-07-14T16:48:06.194Z,100264.63
2023-07-14T16:50:35.291Z,100255.22
2023-07-14T16:53:05.307Z,100257.09
2023-07-14T16:55:33.443Z,100259.97
2023-07-14T16:58:02.467Z,100254.47
2023-07-14T17:00:33.904Z,100243.28
2023-07-14T17:03:16.140Z,100243.09
2023-07-14T17:05:45.008Z,100236.97
2023-07-14T17:08:20.859Z,100240.59
2023-07-14T17:10:49.443Z,100238.00
2023-07-14T17:13:26.817Z,100234.69
2023-07-14T17:15:57.928Z,100226.19
2023-07-14T17:18:30.719Z,100223.38
2023-07-14T17:21:02.547Z,100217.47
2023-07-14T17:23:32.865Z,100210.34
2023-07-14T17:26:02.499Z,100190.41
2023-07-14T17:28:31.837Z,100208.38
2023-07-14T17:31:01.416Z,100206.38
2023-07-14T17:33:31.591Z,100203.63
2023-07-14T17:36:02.517Z,100197.13
2023-07-14T17:38:32.851Z,100189.03
2023-07-14T17:41:01.390Z,100194.78
2023-07-14T17:43:29.588Z,100170.72
2023-07-14T17:45:57.881Z,100192.69
2023-07-14T17:48:26.043Z,100192.91
2023-07-14T17:50:56.889Z,100184.81
2023-07-14T17:53:28.056Z,100183.09
2023-07-14T17:55:56.487Z,100175.38
2023-07-14T17:58:26.572Z,100180.44
2023-07-14T18:00:56.255Z,100179.94
2023-07-14T18:03:27.775Z,100170.13
2023-07-14T18:05:58.844Z,100168.84
2023-07-14T18:08:28.703Z,100166.06
2023-07-14T18:11:04.137Z,100175.19
2023-07-14T18:13:37.890Z,100181.81
2023-07-14T18:16:06.612Z,100178.22
2023-07-14T18:18:34.950Z,100159.97
2023-07-14T18:21:04.639Z,100173.16
2023-07-14T18:23:34.652Z,100179.03
2023-07-14T18:26:04.209Z,100172.25
2023-07-14T18:28:32.636Z,100168.34
2023-07-14T18:31:02.642Z,100172.38
2023-07-14T18:33:34.217Z,100182.91
2023-07-14T18:36:02.273Z,100178.16
2023-07-14T18:38:32.142Z,100173.50
2023-07-14T18:41:01.570Z,100167.03
2023-07-14T18:43:35.634Z,100154.91
2023-07-14T18:46:04.802Z,100149.47
2023-07-14T18:48:34.335Z,100145.78
2023-07-14T18:51:17.860Z,100139.97
2023-07-14T18:53:49.657Z,100152.72
2023-07-14T18:56:19.246Z,100144.13
2023-07-14T18:58:49.195Z,100153.59
2023-07-14T19:01:21.496Z,100151.84
2023-07-14T19:03:51.777Z,100123.19
2023-07-14T19:06:22.739Z,100143.72
2023-07-14T19:08:53.073Z,100147.38
2023-07-14T19:11:26.067Z,100142.34
2023-07-14T19:13:59.292Z,100148.44
2023-07-14T19:16:29.010Z,100158.16
2023-07-14T19:18:58.410Z,100158.81
2023-07-14T19:21:29.010Z,100164.41
2023-07-14T19:23:59.163Z,100149.78
2023-07-14T19:26:27.452Z,100150.25
2023-07-14T19:28:55.554Z,100139.34
2023-07-14T19:31:29.104Z,100143.69
2023-07-14T19:33:57.880Z,100156.41
2023-07-14T19:36:25.964Z,100143.69
2023-07-14T19:38:54.238Z,100158.75
2023-07-14T19:41:24.144Z,100162.19
2023-07-14T19:43:52.535Z,100159.97
2023-07-14T19:46:21.668Z,100162.78
2023-07-14T19:48:49.449Z,100159.97
2023-07-14T19:51:21.740Z,100170.03
2023-07-14T19:53:50.588Z,100160.06
2023-07-14T19:56:19.263Z,100158.22
2023-07-14T19:58:49.704Z,100167.38
2023-07-14T20:01:18.891Z,100164.63
2023-07-14T20:03:47.518Z,100178.34
2023-07-14T20:06:17.406Z,100172.84
2023-07-14T20:08:46.139Z,100170.41
2023-07-14T20:11:16.738Z,100166.81
2023-07-14T20:13:44.937Z,100157.63
2023-07-14T20:16:17.701Z,100162.31
2023-07-14T20:18:47.905Z,100153.13
2023-07-14T20:21:19.513Z,100147.34
2023-07-14T20:23:47.804Z,100150.41
2023-07-14T20:26:18.147Z,100144.34
2023-07-14T20:28:48.507Z,100142.69
2023-07-14T20:31:22.310Z,100146.56
2023-07-14T20:33:53.974Z,100140.75
2023-07-14T20:36:24.407Z,100141.56
2023-07-14T20:38:56.418Z,100133.84
2023-07-14T20:41:32.797Z,100132.22
2023-07-14T20:44:02.035Z,100123.91
2023-07-14T20:46:34.408Z,100124.47
2023-07-14T20:49:17.435Z,100123.41
2023-07-14T20:51:47.198Z,100120.00
2023-07-14T20:54:16.178Z,100116.19
2023-07-14T20:56:44.659Z,100119.03
2023-07-14T20:59:13.456Z,100116.50
2023-07-14T21:01:44.646Z,100111.81
2023-07-14T21:04:22.210Z,100106.81
2023-07-14T21:06:51.663Z,100113.78
2023-07-14T21:09:19.979Z,100115.72
2023-07-14T21:11:48.260Z,100106.88
2023-07-14T21:14:18.333Z,100102.72
2023-07-14T21:16:48.025Z,100118.53
2023-07-14T21:19:16.339Z,100118.25
2023-07-14T21:21:44.533Z,100100.47
2023-07-14T21:24:15.033Z,100100.22
2023-07-14T21:26:43.626Z,100100.22
2023-07-14T21:29:12.402Z,100100.22
2023-07-14T21:31:43.467Z,100103.56
2023-07-14T21:34:16.672Z,100090.50
2023-07-14T21:36:45.280Z,100104.09
2023-07-14T21:39:14.870Z,100093.56
2023-07-14T21:41:44.027Z,100103.56
2023-07-14T21:44:14.391Z,100100.25
2023-07-14T21:46:44.283Z,100090.81
2023-07-14T21:49:13.577Z,100078.06
2023-07-14T21:51:44.228Z,100079.44
2023-07-14T21:54:15.120Z,100073.06
2023-07-14T21:56:43.812Z,100074.16
2023-07-14T21:59:14.033Z,100077.50
2023-07-14T22:01:47.878Z,100069.19
2023-07-14T22:04:20.279Z,100066.94
2023-07-14T22:06:50.659Z,100068.88
2023-07-14T22:09:19.686Z,100068.31
2023-07-14T22:11:48.328Z,100070.22
2023-07-14T22:14:18.054Z,100075.22
2023-07-14T22:16:46.911Z,100076.91
2023-07-14T22:19:16.926Z,100069.13
2023-07-14T22:21:46.393Z,100067.47
2023-07-14T22:24:17.369Z,100073.00
2023-07-14T22:26:46.119Z,100066.91
2023-07-14T22:29:15.968Z,100072.72
2023-07-14T22:31:43.972Z,100068.81
2023-07-14T22:34:15.236Z,100067.41
2023-07-14T22:36:43.322Z,100072.13
2023-07-14T22:39:12.842Z,100070.72
2023-07-14T22:41:44.977Z,100067.41
2023-07-14T22:44:15.351Z,100062.59
2023-07-14T22:46:43.522Z,100058.47
2023-07-14T22:49:13.690Z,100054.59
2023-07-14T22:51:43.393Z,100058.50
2023-07-14T22:54:13.585Z,100061.53
2023-07-14T22:56:43.308Z,100054.31
2023-07-14T22:59:11.292Z,100050.72
2023-07-14T23:01:39.766Z,100050.16
2023-07-14T23:04:08.215Z,100047.97
2023-07-14T23:06:36.441Z,100051.25
2023-07-14T23:09:05.315Z,100048.47
2023-07-14T23:11:35.781Z,100041.28
2023-07-14T23:14:05.340Z,100038.50
2023-07-14T23:16:33.743Z,100031.84
2023-07-14T23:19:01.922Z,100024.91
2023-07-14T23:21:31.756Z,100021.56
2023-07-14T23:24:01.566Z,100014.63
2023-07-14T23:26:31.068Z,100016.56
2023-07-14T23:28:59.551Z,100018.47
2023-07-14T23:31:33.176Z,100014.91
2023-07-14T23:34:01.783Z,100015.78
2023-07-14T23:36:30.883Z,100010.50
2023-07-14T23:38:59.422Z,100009.63
2023-07-14T23:41:30.224Z,100016.28
2023-07-14T23:44:00.391Z,100017.13
2023-07-14T23:46:30.868Z,100000.78
2023-07-14T23:48:58.973Z,99991.88
2023-07-14T23:51:29.393Z,99999.97
2023-07-14T23:53:58.428Z,99984.69
2023-07-14T23:56:27.615Z,99978.00
2023-07-14T23:58:55.810Z,99977.72
